Time;durP1;ratioP1;P1;durP2;ratioP2;P2;SDS_P1;SDS_P2;PMS_P1;PMS_P2;Temp;Humidity;BMP_temperature;BMP_pressure;BME280_temperature;BME280_humidity;BME280_pressure;Samples;Min_cycle;Max_cycle;Signal;HPM_P1;HPM_P2
2021/08/15 00:00:28;;;;;;;6.93;6.22;;;14.10;99.90;;;;;;4973281;28;20464;-71
2021/08/15 00:02:55;;;;;;;7.32;6.60;;;14.20;99.90;;;;;;4974517;28;20030;-71
2021/08/15 00:05:22;;;;;;;6.70;6.10;;;14.40;99.90;;;;;;4974602;28;20033;-71
2021/08/15 00:07:50;;;;;;;6.22;5.43;;;14.60;99.90;;;;;;4973132;28;20113;-70
2021/08/15 00:10:17;;;;;;;5.22;4.72;;;14.70;98.50;;;;;;4974467;28;20027;-68
2021/08/15 00:12:44;;;;;;;4.95;4.55;;;14.70;98.40;;;;;;4974428;28;20027;-69
2021/08/15 00:15:13;;;;;;;4.80;4.10;;;14.80;98.20;;;;;;4972770;28;20051;-70
2021/08/15 00:17:41;;;;;;;4.72;4.32;;;14.90;97.50;;;;;;4973095;28;20078;-70
2021/08/15 00:20:12;;;;;;;3.92;3.63;;;15.10;97.10;;;;;;4972982;28;20034;-69
2021/08/15 00:22:40;;;;;;;;;;;15.20;95.90;;;;;;4973475;28;20023;-70
2021/08/15 00:25:09;;;;;;;3.70;3.40;;;15.30;96.10;;;;;;4974261;28;20366;-68
2021/08/15 00:27:37;;;;;;;4.18;3.80;;;15.40;95.50;;;;;;4974300;28;20110;-69
2021/08/15 00:30:05;;;;;;;3.88;3.58;;;15.60;95.20;;;;;;4974257;28;20439;-69
2021/08/15 00:32:33;;;;;;;4.03;3.63;;;15.70;95.50;;;;;;4974177;28;20026;-69
2021/08/15 00:35:02;;;;;;;3.72;3.33;;;15.90;94.90;;;;;;4974234;28;20030;-69
2021/08/15 00:37:30;;;;;;;4.10;3.30;;;16.00;94.10;;;;;;4974184;28;20369;-69
2021/08/15 00:39:57;;;;;;;3.45;3.15;;;16.10;94.00;;;;;;4974132;28;20025;-69
2021/08/15 00:42:25;;;;;;;3.17;2.88;;;16.30;93.60;;;;;;4974244;28;20414;-69
2021/08/15 00:44:53;;;;;;;3.00;2.80;;;16.30;92.20;;;;;;4972793;28;20026;-69
2021/08/15 00:47:20;;;;;;;3.83;2.85;;;16.30;92.20;;;;;;4972662;28;20055;-69
2021/08/15 00:49:47;;;;;;;3.35;3.05;;;16.40;92.40;;;;;;4974098;28;20023;-69
2021/08/15 00:52:15;;;;;;;2.85;2.65;;;16.50;92.00;;;;;;4973991;28;20030;-71
2021/08/15 00:54:42;;;;;;;5.10;2.70;;;16.70;90.90;;;;;;4974189;28;20101;-70
2021/08/15 00:57:10;;;;;;;3.40;3.10;;;16.70;90.10;;;;;;4973917;28;20106;-69
2021/08/15 00:59:39;;;;;;;2.92;2.70;;;16.80;90.10;;;;;;4972552;28;20487;-69
2021/08/15 01:02:09;;;;;;;2.90;2.70;;;16.80;89.10;;;;;;4973849;28;20486;-70
2021/08/15 01:04:39;;;;;;;2.88;2.50;;;17.00;88.20;;;;;;4972778;28;20034;-69
2021/08/15 01:07:07;;;;;;;2.40;2.30;;;17.00;87.40;;;;;;4974268;28;20027;-70
2021/08/15 01:09:35;;;;;;;2.70;2.50;;;17.00;86.50;;;;;;4973775;28;20480;-70
2021/08/15 01:12:03;;;;;;;3.00;2.70;;;17.00;86.20;;;;;;4973565;28;20026;-69
2021/08/15 01:14:30;;;;;;;3.10;2.83;;;17.10;86.30;;;;;;4974247;28;20047;-70
2021/08/15 01:16:58;;;;;;;3.60;2.80;;;17.20;84.80;;;;;;4976431;28;20492;-69
2021/08/15 01:19:30;;;;;;;2.80;2.60;;;17.20;85.40;;;;;;4977617;28;20427;-68
2021/08/15 01:21:58;;;;;;;2.80;2.60;;;17.30;85.00;;;;;;4977438;28;20027;-71
2021/08/15 01:24:27;;;;;;;2.92;2.72;;;17.40;82.40;;;;;;4977568;28;20538;-70
2021/08/15 01:26:56;;;;;;;2.95;2.78;;;17.40;81.60;;;;;;4976048;28;20034;-70
2021/08/15 01:29:27;;;;;;;3.58;3.00;;;17.70;83.30;;;;;;4977547;28;20048;-70
2021/08/15 01:31:56;;;;;;;2.80;2.60;;;17.90;79.90;;;;;;4976026;28;20073;-71
2021/08/15 01:34:24;;;;;;;2.97;2.78;;;18.00;79.20;;;;;;4977425;28;20113;-70
2021/08/15 01:36:51;;;;;;;2.90;2.70;;;18.00;80.20;;;;;;4975839;28;20383;-70
2021/08/15 01:39:18;;;;;;;2.97;2.70;;;18.00;78.20;;;;;;4977245;28;20018;-71
2021/08/15 01:41:46;;;;;;;2.92;2.70;;;18.00;81.60;;;;;;4977267;28;20074;-71
2021/08/15 01:44:13;;;;;;;2.70;2.50;;;18.00;79.20;;;;;;4977074;28;20023;-71
2021/08/15 01:46:40;;;;;;;2.72;2.40;;;18.00;78.80;;;;;;4975699;28;20023;-70
2021/08/15 01:49:08;;;;;;;2.50;2.40;;;18.00;79.50;;;;;;4976733;28;20027;-71
2021/08/15 01:51:35;;;;;;;2.40;2.20;;;18.00;79.60;;;;;;4975400;28;20029;-70
2021/08/15 01:54:04;;;;;;;2.72;2.53;;;18.10;78.30;;;;;;4975444;28;20025;-70
2021/08/15 01:56:32;;;;;;;2.45;2.30;;;18.20;79.70;;;;;;4975507;28;20051;-71
2021/08/15 01:58:59;;;;;;;3.00;2.80;;;18.30;77.60;;;;;;4976790;28;20038;-71
2021/08/15 02:01:26;;;;;;;3.17;2.67;;;18.30;78.60;;;;;;4975384;28;20424;-71
2021/08/15 02:03:54;;;;;;;3.00;2.80;;;18.40;78.50;;;;;;4975555;28;20031;-72
2021/08/15 02:06:21;;;;;;;2.95;2.78;;;18.40;77.60;;;;;;4975423;28;20518;-71
2021/08/15 02:08:51;;;;;;;2.85;2.65;;;18.40;75.60;;;;;;4976478;28;20031;-71
2021/08/15 02:11:19;;;;;;;2.72;2.60;;;18.60;75.70;;;;;;4974963;28;20027;-71
2021/08/15 02:13:48;;;;;;;2.60;2.40;;;18.70;72.50;;;;;;4975246;28;20062;-71
2021/08/15 02:16:15;;;;;;;2.63;2.50;;;18.70;70.50;;;;;;4976404;28;20074;-71
2021/08/15 02:18:43;;;;;;;2.60;2.40;;;18.80;68.30;;;;;;4976611;28;20427;-70
2021/08/15 02:21:10;;;;;;;2.70;2.50;;;18.90;67.10;;;;;;4976326;28;20058;-71
2021/08/15 02:23:38;;;;;;;2.20;2.10;;;19.00;66.80;;;;;;4975033;28;20038;-71
2021/08/15 02:26:05;;;;;;;2.65;2.47;;;19.20;68.90;;;;;;4973652;28;20033;-70
2021/08/15 02:28:32;;;;;;;4.70;2.50;;;19.10;67.00;;;;;;4976230;28;20472;-69
2021/08/15 02:30:59;;;;;;;2.78;2.63;;;19.20;67.50;;;;;;4976206;28;20486;-70
2021/08/15 02:33:27;;;;;;;2.50;2.30;;;19.30;69.30;;;;;;4976243;28;20023;-69
2021/08/15 02:35:54;;;;;;;2.45;2.35;;;19.50;71.20;;;;;;4976192;28;20102;-70
2021/08/15 02:38:23;;;;;;;2.60;2.40;;;19.50;66.80;;;;;;4976247;28;20027;-69
2021/08/15 02:40:51;;;;;;;2.65;2.40;;;19.50;66.60;;;;;;4974729;28;20101;-71
2021/08/15 02:43:19;;;;;;;2.60;2.40;;;19.50;66.00;;;;;;4974690;28;20117;-70
2021/08/15 02:45:47;;;;;;;2.78;2.53;;;19.40;66.60;;;;;;4976090;28;20027;-71
2021/08/15 02:48:14;;;;;;;2.45;2.35;;;19.30;66.10;;;;;;4976127;28;20406;-71
2021/08/15 02:50:42;;;;;;;3.10;2.90;;;19.40;67.60;;;;;;4976089;28;20105;-69
2021/08/15 02:53:09;;;;;;;3.00;2.80;;;19.30;65.80;;;;;;4975898;28;20415;-72
2021/08/15 02:55:36;;;;;;;2.97;2.78;;;19.30;66.10;;;;;;4975680;28;20023;-70
2021/08/15 02:58:04;;;;;;;2.72;2.53;;;19.50;67.10;;;;;;4975877;28;20023;-71
2021/08/15 03:00:32;;;;;;;2.80;2.60;;;19.30;64.80;;;;;;4975828;28;20423;-71
2021/08/15 03:02:59;;;;;;;2.90;2.80;;;19.30;65.20;;;;;;4974335;28;20022;-71
2021/08/15 03:05:26;;;;;;;2.60;2.50;;;19.50;66.50;;;;;;4974299;28;20022;-71
2021/08/15 03:07:53;;;;;;;2.88;2.67;;;19.40;64.70;;;;;;4975683;28;20501;-70
2021/08/15 03:10:21;;;;;;;2.80;2.55;;;19.40;64.60;;;;;;4974181;28;20035;-70
2021/08/15 03:12:48;;;;;;;2.67;2.50;;;19.60;65.70;;;;;;4974060;28;20031;-71
2021/08/15 03:15:16;;;;;;;2.63;2.47;;;19.60;66.20;;;;;;4975372;28;20047;-71
2021/08/15 03:17:43;;;;;;;2.60;2.50;;;19.50;65.50;;;;;;4975479;28;20027;-70
2021/08/15 03:20:11;;;;;;;2.90;2.70;;;19.50;65.10;;;;;;4974027;28;20027;-70
2021/08/15 03:22:38;;;;;;;3.13;3.03;;;19.60;65.00;;;;;;4975735;28;20539;-70
2021/08/15 03:25:06;;;;;;;3.10;2.90;;;19.60;64.40;;;;;;4975460;28;20023;-70
2021/08/15 03:27:33;;;;;;;3.30;3.00;;;19.60;65.10;;;;;;4974026;28;20388;-72
2021/08/15 03:30:01;;;;;;;3.33;3.03;;;19.80;65.70;;;;;;4975148;28;20535;-70
2021/08/15 03:32:28;;;;;;;3.20;3.00;;;19.80;64.50;;;;;;4975149;28;20022;-70
2021/08/15 03:34:55;;;;;;;3.20;3.10;;;19.90;64.50;;;;;;4975148;28;20102;-70
2021/08/15 03:37:23;;;;;;;3.35;3.15;;;19.90;63.40;;;;;;4974809;28;20076;-70
2021/08/15 03:39:50;;;;;;;2.92;2.83;;;20.00;62.10;;;;;;4974979;28;20045;-70
2021/08/15 03:42:17;;;;;;;3.08;2.90;;;20.10;62.30;;;;;;4973529;28;20166;-70
2021/08/15 03:44:45;;;;;;;2.67;2.58;;;20.10;63.10;;;;;;4975026;28;20506;-70
2021/08/15 03:47:12;;;;;;;2.88;2.67;;;20.10;61.10;;;;;;4973597;28;20479;-70
2021/08/15 03:49:39;;;;;;;2.92;2.72;;;20.10;62.10;;;;;;4973586;28;20055;-71
2021/08/15 03:52:07;;;;;;;3.17;2.92;;;20.20;61.40;;;;;;4974834;28;20023;-71
2021/08/15 03:54:34;;;;;;;2.90;2.70;;;20.10;61.90;;;;;;4974863;28;20073;-70
2021/08/15 03:57:02;;;;;;;3.40;3.20;;;20.10;60.80;;;;;;4973222;28;20110;-70
2021/08/15 03:59:29;;;;;;;2.88;2.78;;;20.20;60.90;;;;;;4975005;28;20523;-70
2021/08/15 04:01:57;;;;;;;3.30;3.10;;;20.20;60.10;;;;;;4974830;28;20085;-71
2021/08/15 04:04:24;;;;;;;3.20;3.00;;;20.40;62.80;;;;;;4973357;28;20049;-71
2021/08/15 04:06:51;;;;;;;3.70;3.40;;;20.40;61.20;;;;;;4973340;28;20483;-70
2021/08/15 04:09:19;;;;;;;3.10;2.90;;;20.30;60.90;;;;;;4974579;28;20030;-70
2021/08/15 04:11:46;;;;;;;2.83;2.70;;;20.30;61.60;;;;;;4974342;28;20443;-69
2021/08/15 04:14:13;;;;;;;2.92;2.83;;;20.40;60.70;;;;;;4973057;28;20113;-69
2021/08/15 04:16:41;;;;;;;3.15;2.95;;;20.50;62.30;;;;;;4974478;28;20105;-69
2021/08/15 04:19:09;;;;;;;3.17;2.97;;;20.50;61.10;;;;;;4972954;28;20162;-69
2021/08/15 04:21:36;;;;;;;3.00;2.80;;;20.30;60.90;;;;;;4974324;28;20037;-71
2021/08/15 04:24:04;;;;;;;3.17;2.97;;;20.30;61.20;;;;;;4974333;28;20030;-70
2021/08/15 04:26:31;;;;;;;3.00;2.88;;;20.30;61.10;;;;;;4972895;28;20035;-70
2021/08/15 04:28:59;;;;;;;3.30;3.10;;;20.50;61.80;;;;;;4974411;28;20388;-70
2021/08/15 04:31:26;;;;;;;3.30;3.00;;;20.60;62.60;;;;;;4974395;28;20049;-70
2021/08/15 04:33:53;;;;;;;3.00;2.80;;;20.50;61.70;;;;;;4974198;28;20029;-70
2021/08/15 04:36:21;;;;;;;2.65;2.55;;;20.50;62.10;;;;;;4974133;28;20023;-69
2021/08/15 04:38:48;;;;;;;3.83;3.60;;;20.60;61.80;;;;;;4974137;28;20440;-69
2021/08/15 04:41:15;;;;;;;2.65;2.55;;;20.50;61.20;;;;;;4974107;28;20137;-69
2021/08/15 04:43:43;;;;;;;2.90;2.70;;;20.40;61.90;;;;;;4972884;28;20122;-70
2021/08/15 04:46:10;;;;;;;2.90;2.70;;;20.30;62.40;;;;;;4973995;28;20031;-69
2021/08/15 04:48:40;;;;;;;2.83;2.70;;;20.30;62.00;;;;;;4973265;28;20455;-69
2021/08/15 04:51:08;;;;;;;2.90;2.70;;;20.20;62.80;;;;;;4973854;28;20030;-68
2021/08/15 04:53:35;;;;;;;3.45;3.25;;;20.10;63.50;;;;;;4973937;28;20082;-69
2021/08/15 04:56:03;;;;;;;2.95;2.70;;;20.10;62.90;;;;;;4973982;28;20361;-70
2021/08/15 04:58:31;;;;;;;2.92;2.72;;;20.00;62.20;;;;;;4973937;28;20106;-69
2021/08/15 05:00:59;;;;;;;2.80;2.70;;;20.00;61.90;;;;;;4972553;28;20495;-68
2021/08/15 05:03:26;;;;;;;3.10;2.90;;;19.90;62.00;;;;;;4972474;28;20456;-68
2021/08/15 05:05:53;;;;;;;3.38;3.17;;;19.80;62.80;;;;;;4972528;28;20106;-68
2021/08/15 05:08:21;;;;;;;3.50;3.20;;;19.80;62.30;;;;;;4973742;28;20046;-69
2021/08/15 05:10:48;;;;;;;3.03;2.83;;;19.70;62.50;;;;;;4973573;28;20031;-69
2021/08/15 05:13:15;;;;;;;3.50;3.20;;;19.70;62.20;;;;;;4973858;28;20388;-70
2021/08/15 05:15:43;;;;;;;3.20;2.90;;;19.70;63.00;;;;;;4973681;28;20043;-70
2021/08/15 05:18:10;;;;;;;3.20;3.00;;;19.60;61.90;;;;;;4973667;28;20023;-69
2021/08/15 05:20:37;;;;;;;3.40;3.20;;;19.60;62.90;;;;;;4973649;28;20443;-69
2021/08/15 05:23:05;;;;;;;3.70;3.40;;;19.60;62.60;;;;;;4973596;28;20026;-70
2021/08/15 05:25:32;;;;;;;3.40;3.20;;;19.70;62.40;;;;;;4973738;28;20023;-69
2021/08/15 05:27:59;;;;;;;3.30;3.10;;;19.60;62.90;;;;;;4973566;28;20023;-70
2021/08/15 05:30:27;;;;;;;3.33;3.13;;;19.60;63.60;;;;;;4973697;28;20093;-68
2021/08/15 05:32:54;;;;;;;4.00;3.40;;;19.60;63.40;;;;;;4973489;28;20023;-67
2021/08/15 05:35:22;;;;;;;3.55;3.25;;;19.60;63.60;;;;;;4972085;28;20022;-69
2021/08/15 05:37:49;;;;;;;3.60;3.30;;;19.50;64.20;;;;;;4973504;28;20031;-69
2021/08/15 05:40:17;;;;;;;3.75;3.45;;;19.40;64.60;;;;;;4973601;28;20023;-70
2021/08/15 05:42:45;;;;;;;3.70;3.50;;;19.40;64.10;;;;;;4972195;28;20488;-69
2021/08/15 05:45:12;;;;;;;3.90;3.70;;;19.40;64.50;;;;;;4972217;28;20026;-69
2021/08/15 05:47:40;;;;;;;3.72;3.53;;;19.40;65.40;;;;;;4972260;28;20547;-69
2021/08/15 05:50:09;;;;;;;3.85;3.47;;;19.40;65.30;;;;;;4972099;28;20023;-69
2021/08/15 05:52:37;;;;;;;4.65;3.47;;;19.30;64.50;;;;;;4972389;28;20023;-71
2021/08/15 05:55:06;;;;;;;3.38;3.15;;;19.30;64.40;;;;;;4973397;28;20530;-70
2021/08/15 05:57:35;;;;;;;3.47;3.28;;;19.20;64.30;;;;;;4973526;28;20517;-69
2021/08/15 06:00:03;;;;;;;3.67;3.38;;;19.20;64.30;;;;;;4974690;28;20030;-70
2021/08/15 06:02:31;;;;;;;3.53;3.22;;;19.10;64.20;;;;;;4976887;28;20023;-69
2021/08/15 06:04:58;;;;;;;3.40;3.20;;;19.10;65.00;;;;;;4976886;28;20042;-70
2021/08/15 06:07:25;;;;;;;3.92;3.67;;;19.00;65.40;;;;;;4976666;28;20054;-69
2021/08/15 06:09:53;;;;;;;3.92;3.50;;;18.90;64.50;;;;;;4975437;28;20035;-69
2021/08/15 06:12:20;;;;;;;10.32;3.85;;;19.00;65.10;;;;;;4975105;28;20037;-69
2021/08/15 06:14:47;;;;;;;3.85;3.00;;;18.90;65.70;;;;;;4974986;28;20491;-69
2021/08/15 06:17:14;;;;;;;3.90;3.47;;;18.90;64.80;;;;;;4976503;28;20030;-70
2021/08/15 06:19:42;;;;;;;3.40;3.20;;;18.80;64.60;;;;;;4976565;28;20023;-69
2021/08/15 06:22:10;;;;;;;3.78;3.25;;;18.70;66.10;;;;;;4976440;28;20037;-68
2021/08/15 06:24:37;;;;;;;3.85;3.45;;;18.70;65.50;;;;;;4976425;28;20031;-69
2021/08/15 06:27:05;;;;;;;3.70;3.50;;;18.70;65.40;;;;;;4976243;28;20034;-69
2021/08/15 06:29:33;;;;;;;4.18;3.88;;;18.60;64.90;;;;;;4976432;28;20058;-68
2021/08/15 06:32:00;;;;;;;6.63;5.93;;;18.60;64.90;;;;;;4976255;28;20058;-70
2021/08/15 06:34:28;;;;;;;10.18;9.13;;;18.60;65.90;;;;;;4976136;28;20025;-70
2021/08/15 06:36:55;;;;;;;7.95;7.00;;;18.50;67.20;;;;;;4976147;28;20027;-71
2021/08/15 06:39:22;;;;;;;13.07;10.45;;;18.50;66.40;;;;;;4976291;28;20099;-70
2021/08/15 06:41:50;;;;;;;4.05;3.65;;;18.50;68.60;;;;;;4976457;28;20031;-71
2021/08/15 06:44:17;;;;;;;3.35;3.20;;;18.40;66.60;;;;;;4975942;28;20347;-69
2021/08/15 06:46:44;;;;;;;4.20;3.38;;;18.30;66.10;;;;;;4976126;28;20471;-69
2021/08/15 06:49:12;;;;;;;3.55;3.35;;;18.30;65.50;;;;;;4974662;28;20030;-69
2021/08/15 06:51:39;;;;;;;4.38;3.95;;;18.30;65.30;;;;;;4975891;28;20476;-69
2021/08/15 06:54:06;;;;;;;3.08;2.88;;;18.20;66.70;;;;;;4974478;28;20026;-69
2021/08/15 06:56:34;;;;;;;3.60;3.30;;;18.10;66.40;;;;;;4974469;28;20206;-71
2021/08/15 06:59:01;;;;;;;3.70;3.40;;;18.00;66.50;;;;;;4975876;28;20023;-69
2021/08/15 07:01:28;;;;;;;3.08;2.88;;;18.00;66.80;;;;;;4975785;28;20033;-70
2021/08/15 07:03:56;;;;;;;3.63;3.30;;;17.90;67.40;;;;;;4974302;28;20155;-70
2021/08/15 07:06:23;;;;;;;3.38;2.97;;;17.70;68.10;;;;;;4975796;28;20058;-70
2021/08/15 07:08:50;;;;;;;3.72;3.42;;;17.50;68.50;;;;;;4975680;28;20488;-70
2021/08/15 07:11:18;;;;;;;3.90;3.60;;;17.40;69.20;;;;;;4974713;28;20049;-71
2021/08/15 07:13:45;;;;;;;5.68;3.80;;;17.20;70.70;;;;;;4975593;28;20365;-69
2021/08/15 07:16:12;;;;;;;4.60;3.70;;;17.00;71.20;;;;;;4975417;28;20067;-69
2021/08/15 07:18:40;;;;;;;5.97;5.32;;;16.90;71.80;;;;;;4975387;28;20495;-70
2021/08/15 07:21:07;;;;;;;10.43;7.28;;;16.80;75.80;;;;;;4975370;28;20019;-69
2021/08/15 07:23:34;;;;;;;6.93;4.28;;;16.70;78.60;;;;;;4975263;28;20026;-70
2021/08/15 07:26:02;;;;;;;3.88;3.53;;;16.50;76.50;;;;;;4975141;28;20027;-71
2021/08/15 07:28:30;;;;;;;6.47;4.40;;;16.40;75.00;;;;;;4975249;28;20035;-70
2021/08/15 07:30:57;;;;;;;9.98;5.28;;;16.30;77.20;;;;;;4975340;28;20037;-71
2021/08/15 07:33:25;;;;;;;10.77;5.65;;;16.40;79.90;;;;;;4973751;28;20492;-71
2021/08/15 07:35:52;;;;;;;4.35;3.80;;;16.30;80.10;;;;;;4973803;28;20023;-70
2021/08/15 07:38:21;;;;;;;6.70;5.05;;;16.10;78.00;;;;;;4973706;28;20026;-70
2021/08/15 07:40:49;;;;;;;5.88;4.60;;;15.90;77.20;;;;;;4973708;28;20117;-70
2021/08/15 07:43:16;;;;;;;4.97;4.47;;;15.70;77.50;;;;;;4974916;28;20019;-70
2021/08/15 07:45:44;;;;;;;5.40;5.00;;;15.50;78.30;;;;;;4973681;28;20460;-70
2021/08/15 07:48:11;;;;;;;5.22;4.78;;;15.40;79.00;;;;;;4973499;28;20054;-71
2021/08/15 07:50:39;;;;;;;4.60;4.30;;;15.30;79.80;;;;;;4974963;28;20023;-69
2021/08/15 07:53:20;;;;;;;5.18;4.68;;;15.20;79.40;;;;;;4974745;28;20026;-70
2021/08/15 07:55:48;;;;;;;29.00;21.63;;;15.10;79.30;;;;;;4974837;28;20507;-70
2021/08/15 07:58:16;;;;;;;16.77;13.40;;;15.10;80.30;;;;;;4973243;28;20027;-70
2021/08/15 08:00:44;;;;;;;10.00;9.05;;;15.00;80.90;;;;;;4974884;28;20058;-71
2021/08/15 08:03:12;;;;;;;9.43;8.35;;;14.80;81.10;;;;;;4974492;28;20025;-70
2021/08/15 08:05:40;;;;;;;9.35;8.45;;;14.80;81.80;;;;;;4974830;28;20073;-71
2021/08/15 08:08:08;;;;;;;9.32;7.25;;;14.70;82.30;;;;;;4974751;28;20030;-71
2021/08/15 08:10:36;;;;;;;8.13;7.32;;;14.60;82.20;;;;;;4974475;28;20557;-70
2021/08/15 08:13:06;;;;;;;8.40;7.45;;;14.50;82.80;;;;;;4972538;28;20117;-69
2021/08/15 08:15:34;;;;;;;7.97;7.38;;;14.40;83.50;;;;;;4974380;28;20098;-70
2021/08/15 08:18:01;;;;;;;8.15;7.45;;;14.40;83.90;;;;;;4974555;28;20040;-70
2021/08/15 08:20:32;;;;;;;7.55;6.85;;;14.30;84.10;;;;;;4974565;28;20025;-70
2021/08/15 08:23:00;;;;;;;7.53;6.82;;;14.20;85.20;;;;;;4973812;28;20023;-71
2021/08/15 08:25:27;;;;;;;8.05;6.63;;;14.10;86.40;;;;;;4974367;28;20448;-71
2021/08/15 08:27:55;;;;;;;7.32;6.65;;;14.00;86.60;;;;;;4972938;28;20023;-70
2021/08/15 08:30:22;;;;;;;6.65;5.88;;;13.90;86.90;;;;;;4974326;28;20030;-70
2021/08/15 08:32:49;;;;;;;6.90;6.05;;;13.90;87.70;;;;;;4974274;28;20476;-70
2021/08/15 08:35:17;;;;;;;7.75;5.78;;;13.80;87.60;;;;;;4973000;28;20027;-70
2021/08/15 08:37:46;;;;;;;6.10;5.53;;;13.80;87.40;;;;;;4973302;28;20034;-70
2021/08/15 08:40:15;;;;;;;6.35;5.28;;;13.70;86.70;;;;;;4973125;28;20363;-70
2021/08/15 08:42:47;;;;;;;8.65;5.35;;;13.90;84.70;;;;;;4974523;28;20050;-70
2021/08/15 08:45:19;;;;;;;6.32;5.10;;;13.90;85.60;;;;;;4974541;28;20031;-70
2021/08/15 08:47:48;;;;;;;4.60;4.30;;;13.90;85.50;;;;;;4974363;28;20376;-71
2021/08/15 08:50:15;;;;;;;4.57;4.15;;;14.00;81.50;;;;;;4973002;28;20033;-69
2021/08/15 08:52:46;;;;;;;5.10;4.60;;;14.20;80.80;;;;;;4974360;28;20389;-71
2021/08/15 08:55:15;;;;;;;4.65;4.25;;;14.20;81.50;;;;;;4972829;28;20081;-71
2021/08/15 08:57:44;;;;;;;5.00;4.60;;;14.30;80.50;;;;;;4973111;28;20030;-71
2021/08/15 09:00:12;;;;;;;4.55;4.15;;;14.30;80.40;;;;;;4974324;28;20145;-71
2021/08/15 09:02:40;;;;;;;4.43;4.13;;;14.30;79.10;;;;;;4972849;28;20030;-71
2021/08/15 09:05:08;;;;;;;8.50;4.93;;;14.50;78.70;;;;;;4972803;28;20027;-71
2021/08/15 09:07:41;;;;;;;4.55;4.15;;;14.50;78.20;;;;;;4974081;28;20491;-71
2021/08/15 09:10:12;;;;;;;3.95;3.60;;;14.50;78.70;;;;;;4974117;28;20027;-72
2021/08/15 09:12:43;;;;;;;4.15;3.75;;;14.60;77.90;;;;;;4972547;28;20039;-71
2021/08/15 09:15:18;;;;;;;4.05;3.67;;;14.60;77.50;;;;;;4973799;28;20035;-73
2021/08/15 09:17:47;;;;;;;3.90;3.53;;;14.80;77.30;;;;;;4973974;28;20019;-73
2021/08/15 09:20:42;;;;;;;4.00;3.70;;;14.80;77.70;;;;;;4973884;28;20026;-72
2021/08/15 09:23:40;;;;;;;3.90;3.50;;;14.70;77.80;;;;;;4961754;28;20118;-70
2021/08/15 09:26:18;;;;;;;4.30;3.90;;;14.50;78.40;;;;;;4957518;28;20027;-72
2021/08/15 09:28:49;;;;;;;5.45;3.83;;;14.50;78.10;;;;;;4973779;28;20479;-71
2021/08/15 09:31:33;;;;;;;5.35;3.53;;;14.60;77.90;;;;;;4973551;28;20053;-71
2021/08/15 09:34:04;;;;;;;4.30;3.90;;;14.50;77.80;;;;;;4972322;28;20438;-70
2021/08/15 09:36:42;;;;;;;4.50;4.10;;;14.50;78.00;;;;;;4975661;28;20058;-70
2021/08/15 09:39:11;;;;;;;3.95;3.65;;;14.40;78.20;;;;;;4976087;28;20077;-70
2021/08/15 09:41:40;;;;;;;5.63;3.53;;;14.30;79.00;;;;;;4977154;28;20027;-70
2021/08/15 09:44:27;;;;;;;6.00;4.57;;;14.20;79.30;;;;;;4977379;28;20041;-72
2021/08/15 09:47:13;;;;;;;4.38;3.97;;;14.10;79.80;;;;;;4977165;28;20031;-69
2021/08/15 09:49:46;;;;;;;4.93;3.60;;;14.00;80.40;;;;;;4977014;28;20487;-71
2021/08/15 09:52:16;;;;;;;3.90;3.28;;;14.10;78.90;;;;;;4977017;28;20392;-71
2021/08/15 09:54:57;;;;;;;2.93;2.73;;;14.30;78.10;;;;;;4975510;28;20506;-72
2021/08/15 09:57:32;;;;;;;3.70;3.40;;;14.40;77.90;;;;;;4975563;28;20372;-72
2021/08/15 10:00:00;;;;;;;3.75;3.17;;;14.40;78.20;;;;;;4975485;28;20072;-72
2021/08/15 10:02:28;;;;;;;3.00;2.80;;;14.40;77.90;;;;;;4977002;28;20101;-73
2021/08/15 10:04:58;;;;;;;3.20;2.90;;;14.30;78.50;;;;;;4976935;28;20341;-72
2021/08/15 10:07:26;;;;;;;3.47;3.08;;;14.30;80.00;;;;;;4975632;28;20165;-73
2021/08/15 10:09:53;;;;;;;4.28;3.92;;;14.10;79.50;;;;;;4975470;28;20074;-73
2021/08/15 10:12:21;;;;;;;5.47;4.20;;;14.00;79.00;;;;;;4976588;28;20027;-72
2021/08/15 10:14:48;;;;;;;4.07;3.70;;;14.00;79.30;;;;;;4976645;28;20035;-73
2021/08/15 10:17:17;;;;;;;3.65;3.35;;;13.90;79.60;;;;;;4976599;28;20051;-72
2021/08/15 10:19:58;;;;;;;4.18;3.88;;;13.80;81.50;;;;;;4975397;28;20122;-72
2021/08/15 10:22:29;;;;;;;4.43;3.90;;;13.70;80.80;;;;;;4976452;28;20085;-72
2021/08/15 10:24:59;;;;;;;3.72;3.42;;;13.70;79.90;;;;;;4975082;28;20022;-72
2021/08/15 10:27:42;;;;;;;8.13;3.80;;;13.70;79.80;;;;;;4976589;28;20033;-72
2021/08/15 10:30:18;;;;;;;4.20;3.90;;;13.70;80.10;;;;;;4976378;28;20031;-73
2021/08/15 10:32:58;;;;;;;3.50;3.20;;;13.70;80.30;;;;;;4974993;28;20114;-72
2021/08/15 10:35:47;;;;;;;4.00;3.70;;;13.60;80.60;;;;;;4974807;28;20152;-74
2021/08/15 10:38:17;;;;;;;3.85;3.45;;;13.50;81.70;;;;;;4974777;28;20072;-74
2021/08/15 10:40:49;;;;;;;3.47;3.17;;;13.40;80.70;;;;;;4976090;28;20046;-75
2021/08/15 10:43:17;;;;;;;3.70;3.50;;;13.40;80.50;;;;;;4974768;28;20516;-74
2021/08/15 10:46:04;;;;;;;3.67;3.13;;;13.30;81.50;;;;;;4974221;28;20507;-75
2021/08/15 10:48:31;;;;;;;5.07;3.38;;;13.20;84.10;;;;;;4975607;28;20523;-76
2021/08/15 10:51:00;;;;;;;4.13;3.28;;;13.00;83.00;;;;;;4975795;28;20352;-75
2021/08/15 10:53:30;;;;;;;4.47;3.20;;;13.00;82.20;;;;;;4975869;28;20494;-73
2021/08/15 10:56:09;;;;;;;4.22;3.40;;;12.90;82.20;;;;;;4974454;28;20027;-73
2021/08/15 10:58:47;;;;;;;3.85;3.55;;;12.90;82.20;;;;;;4975703;28;20031;-72
2021/08/15 11:01:16;;;;;;;4.28;3.60;;;13.00;81.40;;;;;;4974336;28;20050;-71
2021/08/15 11:03:50;;;;;;;3.85;3.47;;;13.00;82.00;;;;;;4974409;28;20384;-73
2021/08/15 11:06:33;;;;;;;6.00;3.30;;;13.10;81.00;;;;;;4974205;28;20118;-73
2021/08/15 11:09:05;;;;;;;4.15;3.75;;;13.10;81.10;;;;;;4974111;28;20110;-72
2021/08/15 11:11:35;;;;;;;3.35;3.15;;;13.20;81.20;;;;;;4975408;28;20026;-72
2021/08/15 11:14:22;;;;;;;3.50;3.28;;;13.20;81.10;;;;;;4975562;28;20480;-74
2021/08/15 11:16:50;;;;;;;3.80;3.50;;;13.10;81.10;;;;;;4974075;28;20038;-72
2021/08/15 11:19:20;;;;;;;4.40;3.67;;;13.10;81.00;;;;;;4974106;28;20022;-72
2021/08/15 11:22:14;;;;;;;3.67;3.35;;;13.00;81.40;;;;;;4973972;28;20023;-72
2021/08/15 11:24:44;;;;;;;3.85;3.45;;;13.10;81.00;;;;;;4972268;28;20483;-72
2021/08/15 11:27:13;;;;;;;5.63;3.50;;;13.00;81.30;;;;;;4973968;28;20027;-72
2021/08/15 11:29:42;;;;;;;4.57;3.55;;;13.00;81.50;;;;;;4975227;28;20033;-73
2021/08/15 11:32:16;;;;;;;3.22;3.03;;;13.00;82.10;;;;;;4975090;28;20117;-72
2021/08/15 11:34:58;;;;;;;4.38;3.20;;;13.00;81.70;;;;;;4975338;28;20026;-72
2021/08/15 11:37:37;;;;;;;3.58;3.13;;;12.90;82.60;;;;;;4973863;28;20162;-72
2021/08/15 11:40:18;;;;;;;3.92;3.60;;;12.90;83.50;;;;;;4975200;28;20387;-72
2021/08/15 11:42:57;;;;;;;3.60;3.40;;;12.80;83.00;;;;;;4973599;28;20542;-71
2021/08/15 11:45:35;;;;;;;3.90;3.60;;;12.70;85.10;;;;;;4974958;28;20026;-71
2021/08/15 11:48:11;;;;;;;3.63;3.42;;;12.80;83.90;;;;;;4975176;28;20387;-71
2021/08/15 11:50:44;;;;;;;4.25;3.85;;;12.90;83.90;;;;;;4974648;28;20031;-71
2021/08/15 11:53:21;;;;;;;3.60;3.30;;;12.80;84.80;;;;;;4974915;28;20023;-71
2021/08/15 11:55:49;;;;;;;5.03;3.72;;;12.60;84.50;;;;;;4973436;28;20034;-72
2021/08/15 11:58:18;;;;;;;3.60;3.40;;;12.60;84.80;;;;;;4973167;28;20023;-71
2021/08/15 12:00:47;;;;;;;5.05;3.30;;;12.60;84.20;;;;;;4974734;28;20023;-72
2021/08/15 12:03:22;;;;;;;4.13;3.70;;;12.60;84.70;;;;;;4974684;28;20027;-72
2021/08/15 12:05:57;;;;;;;4.05;3.65;;;12.60;84.70;;;;;;4974663;28;20023;-72
2021/08/15 12:08:37;;;;;;;4.00;3.70;;;12.60;85.50;;;;;;4973237;28;20077;-72
2021/08/15 12:11:25;;;;;;;4.00;3.70;;;12.60;85.20;;;;;;4973095;28;20023;-72
2021/08/15 12:14:08;;;;;;;3.60;3.40;;;12.50;86.20;;;;;;4973271;28;20031;-71
2021/08/15 12:16:37;;;;;;;4.25;3.90;;;12.60;85.30;;;;;;4973183;28;20035;-72
2021/08/15 12:19:06;;;;;;;4.68;4.03;;;12.50;85.90;;;;;;4974437;28;20050;-72
2021/08/15 12:21:35;;;;;;;4.18;3.63;;;12.40;87.90;;;;;;4973014;28;20081;-72
2021/08/15 12:24:26;;;;;;;3.83;3.63;;;12.30;87.80;;;;;;4974299;28;20105;-70
2021/08/15 12:26:56;;;;;;;;;;;12.00;90.70;;;;;;4974811;28;20081;-71
2021/08/15 12:29:23;;;;;;;4.20;3.80;;;11.80;90.70;;;;;;4972893;28;19917;-73
2021/08/15 12:32:11;;;;;;;4.18;3.78;;;11.70;90.80;;;;;;4974105;28;20031;-71
2021/08/15 12:34:41;;;;;;;3.80;3.50;;;11.60;91.20;;;;;;4974419;28;20051;-72
2021/08/15 12:37:18;;;;;;;3.83;3.50;;;11.50;90.70;;;;;;4974136;28;20081;-71
2021/08/15 12:39:49;;;;;;;3.83;3.53;;;11.50;90.30;;;;;;4974086;28;20042;-71
2021/08/15 12:42:20;;;;;;;4.85;3.80;;;11.60;89.60;;;;;;4972763;28;20169;-71
2021/08/15 12:44:53;;;;;;;4.25;3.63;;;11.70;90.20;;;;;;4974069;28;20090;-71
2021/08/15 12:47:41;;;;;;;4.43;4.03;;;11.70;90.40;;;;;;4974187;28;20027;-71
2021/08/15 12:50:22;;;;;;;3.80;3.50;;;11.70;91.00;;;;;;4972624;28;20035;-71
2021/08/15 12:52:52;;;;;;;3.60;3.30;;;11.60;90.60;;;;;;4974116;28;20082;-70
2021/08/15 12:55:23;;;;;;;4.10;3.70;;;11.60;90.40;;;;;;4974032;28;20034;-71
2021/08/15 12:57:57;;;;;;;4.20;3.55;;;11.50;91.70;;;;;;4974051;28;20027;-71
2021/08/15 13:00:30;;;;;;;3.85;3.55;;;11.40;91.80;;;;;;4972615;28;20027;-71